Weather at Vertientes Southwest Airport

Public forecast

Using degrees Celsius for public forecast. Weather courtesy of forecast.io.

Closest aviation weather report (METAR) to Vertientes Southwest Airport

Closest report is Ignacio Agramonte International Airport, 31.6 nm (58.5 km) ENE. Retrieved 2021/10/23 00:51 UTC (11 minutes ago):

MUCM 230051Z 33003KT 290V360 9000 SCT020 25/23 Q1015

Closest aviation forecast (TAF) to Vertientes Southwest Airport

Closest forecast is Ignacio Agramonte International Airport, 31.6 nm (58.5 km) ENE. Retrieved 2021-10-23 00:06 UTC (56 minutes ago):

TAF MUCM 222300Z 2300/2324 VRB03KT 9000 SCT018 PROB30 TEMPO 2307/2312 4000 BR NSC